Aérodrome :
LOGIN :

S'inscrire | Disclaimer

   EN    FR    IT 

 










Légende :    VFR   VFR Marginal   IFR   IFR Intensif   IFR Très Intensif
Visi : 
Plafond : 
>= 8 km
>= 3000ft
5 à 8 km
1000 à 3000 ft
1500m à 5 km
500 à 1000 ft
800 à 1500m
200 à 500 ft
< 800m
< 200 ft
Symboles :   Orages  Brouillard  Fortes neiges  Fortes précipitations  Vent > 20 kt
SIGMETs :   Divers  Orages  Givrage  Turbulence  Onde Orograph.  Cendres Volcan.






- Altitude de l'aérodrome : 69 ft
- Code IATA : AES


ENAL - Ålesund

DERNIER METAR :
  • 242320Z AUTO 27010KT 9999 UP FEW034/// SCT047/// OVC059/// 05/M02 Q1007

METARs EXPIRÉS :
  • 242250Z AUTO 27012KT 9999 SCT044/// OVC062/// 04/M02 Q1007
  • 242220Z 28015KT 9999 SCT041 04/M02 Q1007
  • 242150Z 27011KT 9999 VCSH SCT033 BKN062 05/M01 Q1006
  • 242120Z 26014KT 240V300 9999 SCT036 BKN060 04/M00 Q1006
  • 242050Z 27015KT 9999 VCSH FEW015 SCT040 BKN061 04/M02 Q1006

Prévision TAF périmée.



MET'MAP, la Météo Aéronautique d'un coup d'oeil ! - Copyright ORBIFLY Décembre 2007 - Disclaimer

ORBIFLY MET'MAP TEAM :

Programmation & Développement : Alexandra Zaïnal
Sur une idée originale de : Baudouin d'Aumeries
Assistance à la programmation : Marc-Olivier Méhu
Soutien technique & logistique : Manuel Goepfert

Contact : metmap@orbifly.com




SOURCES & CREDITS :

   NOAA